PKMJ

Details ICAO PKMJ (MAJ)
Name MARSHALL ISLANDS INTL
Region Marshall Islands
Timezone Pacific/Majuro (UTC+12.0)
Plans Departing 106
Arriving 83
Stats Elevation 6 ft / 2 m (AMSL)
Location 7.064760° 171.272023°
Runways 1
Magnetic Variation 8.428° E
Sunrise 2017-12-13 18:39:17 UTC / 2017-12-14 06:39:17 Local
Sunset 2017-12-14 06:22:15 UTC / 2017-12-14 18:22:15 Local
Advertisement - Login to hide

Runways

ID Width Length Bearing (true) Bearing (mag) Surface Threshold Offset Overrun Length
07 150 ft / 46 m 7,898 ft / 2,407 m 76.08° 67.65° Asphalt 0 ft / 0 m 200 ft / 61 m
25 150 ft / 46 m 7,898 ft / 2,407 m 256.08° 247.65° Asphalt 0 ft / 0 m 200 ft / 61 m

Map

Weather


0- 5 10 15 20 25 30 35+ Temperature / ° C

Clouds and Precipitation
Forecast for 2017-12-14 00:00 UTC. Updated an hour ago

Ground ~20,000 ft ~40,000 ft Winds

METAR

PKMJ 132351Z 10010KT 15SM SCT014 SCT050 BKN120 OVC300 28/25 A2979

TAF

TAF PKMJ 132331Z 1400/1424 10011KT P6SM VCSH SCT014 BKN040 BKN110 TEMPO 1400/1404 10012G22KT 3SM +SHRA OVC014

Frequencies

Unicom 123.60 MHz CTAF
Warning: Do not use this data for real-world aviation or navigation. No guarantee of current accuracy is given.